Portada
METAR-TAF:

METAR-TAF

Aeroports :

Talara, Perú

latitud: 04-34S, longitud: 081-15W, altitud: 85 m

Observació

L'informe es va fer fa 18 minuts, a les 14:00 UTC
Vent 14 kt del Sud-Est
Temperatura 26°C
Humitat 70%
Pressió 1012 hPa
Visibilitat 10 km o més
Núvols disperses a una alçada de 4000 ft

METAR: SPYL 301400Z 13014KT 9999 SCT040 26/20 Q1012 RMK BIRD HAZARD RWY 17/35 PP000

Hora: 09:18 (14:18 UTC)

Pronòstic

L'informe es va fer fa 3 hores i 8 minuts, a les 11:10 UTC
Pronòstic vàlid del 30 a les 12 UTC al 31 a les 12 UTC
Vent 15 kt del Sud-Est
Visibilitat 10 km o més
sense núvols per sota de 1500 mi sense presència de cumulonimbus.
Evolucionant progressivament
l' 30 a les 16 UTC al 30 a les 18 UTC
Vent 10 kt del Sud-Oest

TAF: SPYL 301110Z 3012/3112 14015KT CAVOK TX34/3019Z TN23/3111Z BECMG 3016/3018 23010KT

Observacions i pronòstics meteorològics de més de 4000 aeroports (METAR i TAF).

Les estacions disponibles són els punts grocs i vermells al mapa.

Posi el ratolí al punt desitjat per veure el nom de l'estació.

Feu clic per veure les observacions i els pronòstics meteorològics.

Per canviar el mapa: feu clic els botons verds amb una creu de color negre per apropar; al botó verd amb un guió per allunyar la imatge; o en les fletxes verdes per a mapes adjacents.


METAR-TAF: